sensor_id;sensor_type;location;lat;lon;timestamp;P1;durP1;ratioP1;P2;durP2;ratioP2
59854;SDS011;45732;52.850;6.896;2022-07-30T00:00:00;11.57;;;5.75;;
59854;SDS011;45732;52.850;6.896;2022-07-30T00:02:26;9.23;;;5.50;;
59854;SDS011;45732;52.850;6.896;2022-07-30T00:04:51;10.65;;;6.13;;
59854;SDS011;45732;52.850;6.896;2022-07-30T00:07:17;10.25;;;5.95;;
59854;SDS011;45732;52.850;6.896;2022-07-30T00:09:43;11.75;;;6.43;;
59854;SDS011;45732;52.850;6.896;2022-07-30T00:12:08;11.45;;;6.60;;
59854;SDS011;45732;52.850;6.896;2022-07-30T00:14:34;9.48;;;5.95;;
59854;SDS011;45732;52.850;6.896;2022-07-30T00:17:01;12.73;;;6.72;;
59854;SDS011;45732;52.850;6.896;2022-07-30T00:19:27;11.85;;;6.40;;
59854;SDS011;45732;52.850;6.896;2022-07-30T00:21:53;10.48;;;7.15;;
59854;SDS011;45732;52.850;6.896;2022-07-30T00:24:19;10.82;;;7.90;;
59854;SDS011;45732;52.850;6.896;2022-07-30T00:26:45;13.50;;;7.32;;
59854;SDS011;45732;52.850;6.896;2022-07-30T00:29:11;14.90;;;7.43;;
59854;SDS011;45732;52.850;6.896;2022-07-30T00:31:37;11.48;;;7.10;;
59854;SDS011;45732;52.850;6.896;2022-07-30T00:34:02;11.52;;;7.07;;
59854;SDS011;45732;52.850;6.896;2022-07-30T00:36:29;9.70;;;6.97;;
59854;SDS011;45732;52.850;6.896;2022-07-30T00:38:54;10.50;;;7.13;;
59854;SDS011;45732;52.850;6.896;2022-07-30T00:41:20;9.75;;;6.28;;
59854;SDS011;45732;52.850;6.896;2022-07-30T00:43:46;8.88;;;6.63;;
59854;SDS011;45732;52.850;6.896;2022-07-30T00:46:12;10.05;;;7.00;;
59854;SDS011;45732;52.850;6.896;2022-07-30T00:48:39;11.40;;;6.78;;
59854;SDS011;45732;52.850;6.896;2022-07-30T00:51:05;11.05;;;7.25;;
59854;SDS011;45732;52.850;6.896;2022-07-30T00:53:31;11.05;;;7.80;;
59854;SDS011;45732;52.850;6.896;2022-07-30T00:55:57;12.63;;;7.72;;
59854;SDS011;45732;52.850;6.896;2022-07-30T00:58:22;13.38;;;7.43;;
59854;SDS011;45732;52.850;6.896;2022-07-30T01:00:48;14.68;;;8.60;;
59854;SDS011;45732;52.850;6.896;2022-07-30T01:03:14;10.73;;;7.72;;
59854;SDS011;45732;52.850;6.896;2022-07-30T01:05:39;10.85;;;6.88;;
59854;SDS011;45732;52.850;6.896;2022-07-30T01:08:05;13.75;;;7.68;;
59854;SDS011;45732;52.850;6.896;2022-07-30T01:10:31;12.65;;;8.07;;
59854;SDS011;45732;52.850;6.896;2022-07-30T01:12:57;12.25;;;7.88;;
59854;SDS011;45732;52.850;6.896;2022-07-30T01:15:23;11.80;;;9.43;;
59854;SDS011;45732;52.850;6.896;2022-07-30T01:17:50;12.63;;;8.43;;
59854;SDS011;45732;52.850;6.896;2022-07-30T01:20:19;16.05;;;10.43;;
59854;SDS011;45732;52.850;6.896;2022-07-30T01:22:53;11.32;;;8.15;;
59854;SDS011;45732;52.850;6.896;2022-07-30T01:30:29;8.25;;;6.63;;
59854;SDS011;45732;52.850;6.896;2022-07-30T01:32:57;10.35;;;7.15;;
59854;SDS011;45732;52.850;6.896;2022-07-30T01:35:25;10.00;;;6.78;;
59854;SDS011;45732;52.850;6.896;2022-07-30T01:37:53;9.05;;;6.28;;
59854;SDS011;45732;52.850;6.896;2022-07-30T01:40:21;8.88;;;5.90;;
59854;SDS011;45732;52.850;6.896;2022-07-30T01:42:50;9.60;;;6.88;;
59854;SDS011;45732;52.850;6.896;2022-07-30T01:45:25;9.90;;;7.30;;
59854;SDS011;45732;52.850;6.896;2022-07-30T01:47:54;10.00;;;8.05;;
59854;SDS011;45732;52.850;6.896;2022-07-30T01:50:22;13.63;;;8.82;;
59854;SDS011;45732;52.850;6.896;2022-07-30T01:52:49;14.15;;;7.82;;
59854;SDS011;45732;52.850;6.896;2022-07-30T01:55:17;12.43;;;7.90;;
59854;SDS011;45732;52.850;6.896;2022-07-30T01:57:48;13.73;;;8.27;;
59854;SDS011;45732;52.850;6.896;2022-07-30T02:00:15;10.75;;;7.25;;
59854;SDS011;45732;52.850;6.896;2022-07-30T02:02:41;13.85;;;9.07;;
59854;SDS011;45732;52.850;6.896;2022-07-30T02:05:07;12.73;;;9.07;;
59854;SDS011;45732;52.850;6.896;2022-07-30T02:10:32;13.65;;;9.82;;
59854;SDS011;45732;52.850;6.896;2022-07-30T02:13:02;14.20;;;9.43;;
59854;SDS011;45732;52.850;6.896;2022-07-30T02:15:53;14.15;;;10.45;;
59854;SDS011;45732;52.850;6.896;2022-07-30T02:21:27;8.80;;;6.25;;
59854;SDS011;45732;52.850;6.896;2022-07-30T02:23:57;10.57;;;7.35;;
59854;SDS011;45732;52.850;6.896;2022-07-30T02:26:26;11.95;;;8.35;;
59854;SDS011;45732;52.850;6.896;2022-07-30T02:28:55;13.30;;;9.63;;
59854;SDS011;45732;52.850;6.896;2022-07-30T02:31:25;12.95;;;9.88;;
59854;SDS011;45732;52.850;6.896;2022-07-30T02:33:55;12.98;;;9.23;;
59854;SDS011;45732;52.850;6.896;2022-07-30T02:36:24;12.20;;;9.90;;
59854;SDS011;45732;52.850;6.896;2022-07-30T02:38:51;11.07;;;9.40;;
59854;SDS011;45732;52.850;6.896;2022-07-30T02:41:19;13.13;;;9.63;;
59854;SDS011;45732;52.850;6.896;2022-07-30T02:43:47;12.75;;;9.05;;
59854;SDS011;45732;52.850;6.896;2022-07-30T02:46:15;10.98;;;7.93;;
59854;SDS011;45732;52.850;6.896;2022-07-30T02:48:43;9.32;;;7.15;;
59854;SDS011;45732;52.850;6.896;2022-07-30T02:51:10;11.70;;;7.88;;
59854;SDS011;45732;52.850;6.896;2022-07-30T02:53:37;13.63;;;8.40;;
59854;SDS011;45732;52.850;6.896;2022-07-30T02:56:06;9.52;;;7.72;;
59854;SDS011;45732;52.850;6.896;2022-07-30T02:58:33;9.98;;;7.65;;
59854;SDS011;45732;52.850;6.896;2022-07-30T03:00:59;11.55;;;8.27;;
59854;SDS011;45732;52.850;6.896;2022-07-30T03:03:27;9.15;;;7.15;;
59854;SDS011;45732;52.850;6.896;2022-07-30T03:05:54;9.35;;;7.38;;
59854;SDS011;45732;52.850;6.896;2022-07-30T03:08:21;9.90;;;7.43;;
59854;SDS011;45732;52.850;6.896;2022-07-30T03:10:47;10.40;;;7.05;;
59854;SDS011;45732;52.850;6.896;2022-07-30T03:13:14;11.02;;;7.30;;
59854;SDS011;45732;52.850;6.896;2022-07-30T03:15:42;9.63;;;7.00;;
59854;SDS011;45732;52.850;6.896;2022-07-30T03:18:12;10.40;;;7.65;;
59854;SDS011;45732;52.850;6.896;2022-07-30T03:20:40;8.57;;;7.00;;
59854;SDS011;45732;52.850;6.896;2022-07-30T03:23:10;11.90;;;7.35;;
59854;SDS011;45732;52.850;6.896;2022-07-30T03:25:38;11.40;;;6.82;;
59854;SDS011;45732;52.850;6.896;2022-07-30T03:28:06;10.95;;;6.85;;
59854;SDS011;45732;52.850;6.896;2022-07-30T03:30:32;11.07;;;6.50;;
59854;SDS011;45732;52.850;6.896;2022-07-30T03:32:58;9.40;;;7.30;;
59854;SDS011;45732;52.850;6.896;2022-07-30T03:35:25;9.43;;;7.13;;
59854;SDS011;45732;52.850;6.896;2022-07-30T03:37:52;10.05;;;6.85;;
59854;SDS011;45732;52.850;6.896;2022-07-30T03:40:19;11.98;;;6.85;;
59854;SDS011;45732;52.850;6.896;2022-07-30T03:42:46;9.13;;;7.25;;
59854;SDS011;45732;52.850;6.896;2022-07-30T03:45:13;10.40;;;8.20;;
59854;SDS011;45732;52.850;6.896;2022-07-30T03:47:39;10.88;;;7.07;;
59854;SDS011;45732;52.850;6.896;2022-07-30T03:50:06;10.20;;;7.13;;
59854;SDS011;45732;52.850;6.896;2022-07-30T03:52:33;9.88;;;7.03;;
59854;SDS011;45732;52.850;6.896;2022-07-30T03:55:01;11.07;;;7.30;;
59854;SDS011;45732;52.850;6.896;2022-07-30T03:57:27;11.52;;;7.88;;
59854;SDS011;45732;52.850;6.896;2022-07-30T03:59:53;9.30;;;7.80;;
59854;SDS011;45732;52.850;6.896;2022-07-30T04:02:19;13.63;;;8.23;;
59854;SDS011;45732;52.850;6.896;2022-07-30T04:04:45;10.18;;;8.00;;
59854;SDS011;45732;52.850;6.896;2022-07-30T04:07:11;12.95;;;8.30;;
59854;SDS011;45732;52.850;6.896;2022-07-30T04:09:37;11.52;;;8.82;;
59854;SDS011;45732;52.850;6.896;2022-07-30T04:12:02;11.25;;;9.25;;
59854;SDS011;45732;52.850;6.896;2022-07-30T04:14:38;11.70;;;9.38;;
59854;SDS011;45732;52.850;6.896;2022-07-30T04:17:07;11.43;;;9.55;;
59854;SDS011;45732;52.850;6.896;2022-07-30T04:19:45;14.13;;;10.07;;
59854;SDS011;45732;52.850;6.896;2022-07-30T04:22:16;12.98;;;9.73;;
59854;SDS011;45732;52.850;6.896;2022-07-30T04:24:45;13.52;;;9.13;;
59854;SDS011;45732;52.850;6.896;2022-07-30T04:27:13;13.10;;;9.63;;
59854;SDS011;45732;52.850;6.896;2022-07-30T04:29:39;11.75;;;9.23;;
59854;SDS011;45732;52.850;6.896;2022-07-30T04:32:06;12.57;;;9.02;;
59854;SDS011;45732;52.850;6.896;2022-07-30T04:34:33;13.02;;;9.63;;
59854;SDS011;45732;52.850;6.896;2022-07-30T04:36:59;15.07;;;11.05;;
59854;SDS011;45732;52.850;6.896;2022-07-30T04:39:24;12.02;;;10.35;;
59854;SDS011;45732;52.850;6.896;2022-07-30T04:41:50;12.90;;;10.68;;
59854;SDS011;45732;52.850;6.896;2022-07-30T04:44:17;12.30;;;10.18;;
59854;SDS011;45732;52.850;6.896;2022-07-30T04:46:43;13.77;;;11.60;;
59854;SDS011;45732;52.850;6.896;2022-07-30T04:49:10;13.63;;;10.52;;
59854;SDS011;45732;52.850;6.896;2022-07-30T04:51:38;12.90;;;10.00;;
59854;SDS011;45732;52.850;6.896;2022-07-30T04:54:05;15.07;;;10.70;;
59854;SDS011;45732;52.850;6.896;2022-07-30T04:56:35;14.45;;;10.98;;
59854;SDS011;45732;52.850;6.896;2022-07-30T04:59:02;14.25;;;10.23;;
59854;SDS011;45732;52.850;6.896;2022-07-30T05:01:30;14.35;;;10.88;;
59854;SDS011;45732;52.850;6.896;2022-07-30T05:04:00;13.18;;;10.75;;
59854;SDS011;45732;52.850;6.896;2022-07-30T05:06:27;12.75;;;11.30;;
59854;SDS011;45732;52.850;6.896;2022-07-30T05:08:55;14.02;;;10.10;;
59854;SDS011;45732;52.850;6.896;2022-07-30T05:11:21;12.70;;;10.48;;
59854;SDS011;45732;52.850;6.896;2022-07-30T05:13:47;13.27;;;11.35;;
59854;SDS011;45732;52.850;6.896;2022-07-30T05:16:13;15.10;;;10.88;;
59854;SDS011;45732;52.850;6.896;2022-07-30T05:18:39;15.43;;;12.05;;
59854;SDS011;45732;52.850;6.896;2022-07-30T05:21:05;14.32;;;11.93;;
59854;SDS011;45732;52.850;6.896;2022-07-30T05:23:32;16.10;;;11.60;;
59854;SDS011;45732;52.850;6.896;2022-07-30T05:25:57;16.30;;;11.90;;
59854;SDS011;45732;52.850;6.896;2022-07-30T05:28:23;14.35;;;12.18;;
59854;SDS011;45732;52.850;6.896;2022-07-30T05:30:52;16.08;;;12.63;;
59854;SDS011;45732;52.850;6.896;2022-07-30T05:33:19;13.50;;;11.93;;
59854;SDS011;45732;52.850;6.896;2022-07-30T05:35:45;14.73;;;12.10;;
59854;SDS011;45732;52.850;6.896;2022-07-30T05:38:11;14.85;;;11.48;;
59854;SDS011;45732;52.850;6.896;2022-07-30T05:40:37;18.83;;;12.75;;
59854;SDS011;45732;52.850;6.896;2022-07-30T05:43:02;18.95;;;12.98;;
59854;SDS011;45732;52.850;6.896;2022-07-30T05:45:28;13.85;;;12.35;;
59854;SDS011;45732;52.850;6.896;2022-07-30T05:47:54;16.85;;;13.18;;
59854;SDS011;45732;52.850;6.896;2022-07-30T05:50:20;15.50;;;12.48;;
59854;SDS011;45732;52.850;6.896;2022-07-30T05:52:45;15.02;;;13.15;;
59854;SDS011;45732;52.850;6.896;2022-07-30T05:55:11;15.32;;;13.32;;
59854;SDS011;45732;52.850;6.896;2022-07-30T05:57:37;17.45;;;13.25;;
59854;SDS011;45732;52.850;6.896;2022-07-30T06:00:05;16.52;;;12.80;;
59854;SDS011;45732;52.850;6.896;2022-07-30T06:02:32;16.70;;;12.77;;
59854;SDS011;45732;52.850;6.896;2022-07-30T06:04:58;16.23;;;13.85;;
59854;SDS011;45732;52.850;6.896;2022-07-30T06:07:24;15.80;;;13.60;;
59854;SDS011;45732;52.850;6.896;2022-07-30T06:09:49;16.10;;;13.60;;
59854;SDS011;45732;52.850;6.896;2022-07-30T06:12:15;15.60;;;13.02;;
59854;SDS011;45732;52.850;6.896;2022-07-30T06:14:41;16.83;;;13.13;;
59854;SDS011;45732;52.850;6.896;2022-07-30T06:17:07;17.67;;;13.07;;
59854;SDS011;45732;52.850;6.896;2022-07-30T06:19:32;14.68;;;12.52;;
59854;SDS011;45732;52.850;6.896;2022-07-30T06:21:58;14.35;;;11.77;;
59854;SDS011;45732;52.850;6.896;2022-07-30T06:24:24;15.00;;;12.43;;
59854;SDS011;45732;52.850;6.896;2022-07-30T06:26:49;16.02;;;12.55;;
59854;SDS011;45732;52.850;6.896;2022-07-30T06:29:15;14.18;;;11.98;;
59854;SDS011;45732;52.850;6.896;2022-07-30T06:31:41;14.68;;;11.70;;
59854;SDS011;45732;52.850;6.896;2022-07-30T06:34:06;14.32;;;10.77;;
59854;SDS011;45732;52.850;6.896;2022-07-30T06:36:32;12.68;;;10.82;;
59854;SDS011;45732;52.850;6.896;2022-07-30T06:38:58;13.07;;;10.88;;
59854;SDS011;45732;52.850;6.896;2022-07-30T06:41:23;11.15;;;9.80;;
59854;SDS011;45732;52.850;6.896;2022-07-30T06:43:49;11.65;;;9.73;;
59854;SDS011;45732;52.850;6.896;2022-07-30T06:46:15;12.25;;;9.32;;
59854;SDS011;45732;52.850;6.896;2022-07-30T06:48:41;9.63;;;8.52;;
59854;SDS011;45732;52.850;6.896;2022-07-30T06:51:07;10.77;;;8.27;;
59854;SDS011;45732;52.850;6.896;2022-07-30T06:53:33;10.73;;;8.93;;
59854;SDS011;45732;52.850;6.896;2022-07-30T06:55:59;11.32;;;8.45;;
59854;SDS011;45732;52.850;6.896;2022-07-30T06:58:24;9.98;;;8.43;;
59854;SDS011;45732;52.850;6.896;2022-07-30T07:00:50;10.50;;;8.27;;
59854;SDS011;45732;52.850;6.896;2022-07-30T07:03:16;11.18;;;7.65;;
59854;SDS011;45732;52.850;6.896;2022-07-30T07:05:41;9.88;;;8.15;;
59854;SDS011;45732;52.850;6.896;2022-07-30T07:08:07;10.50;;;7.78;;
59854;SDS011;45732;52.850;6.896;2022-07-30T07:10:33;11.07;;;8.27;;
59854;SDS011;45732;52.850;6.896;2022-07-30T07:12:58;11.57;;;8.15;;
59854;SDS011;45732;52.850;6.896;2022-07-30T07:15:24;10.80;;;8.02;;
59854;SDS011;45732;52.850;6.896;2022-07-30T07:17:51;11.45;;;7.90;;
59854;SDS011;45732;52.850;6.896;2022-07-30T07:20:17;12.10;;;8.40;;
59854;SDS011;45732;52.850;6.896;2022-07-30T07:22:42;11.82;;;9.05;;
59854;SDS011;45732;52.850;6.896;2022-07-30T07:25:08;11.73;;;9.05;;
59854;SDS011;45732;52.850;6.896;2022-07-30T07:27:35;13.80;;;8.95;;
59854;SDS011;45732;52.850;6.896;2022-07-30T07:30:01;12.73;;;9.32;;
59854;SDS011;45732;52.850;6.896;2022-07-30T07:32:28;13.43;;;8.48;;
59854;SDS011;45732;52.850;6.896;2022-07-30T07:34:54;10.43;;;8.73;;
59854;SDS011;45732;52.850;6.896;2022-07-30T07:37:20;11.57;;;8.27;;
59854;SDS011;45732;52.850;6.896;2022-07-30T07:39:45;13.55;;;9.98;;
59854;SDS011;45732;52.850;6.896;2022-07-30T07:42:11;13.40;;;10.23;;
59854;SDS011;45732;52.850;6.896;2022-07-30T07:44:37;15.07;;;10.13;;
59854;SDS011;45732;52.850;6.896;2022-07-30T07:47:02;13.30;;;9.98;;
59854;SDS011;45732;52.850;6.896;2022-07-30T07:49:28;14.15;;;9.77;;
59854;SDS011;45732;52.850;6.896;2022-07-30T07:51:54;13.90;;;9.57;;
59854;SDS011;45732;52.850;6.896;2022-07-30T07:54:20;12.95;;;10.07;;
59854;SDS011;45732;52.850;6.896;2022-07-30T07:56:45;15.55;;;10.32;;
59854;SDS011;45732;52.850;6.896;2022-07-30T07:59:12;11.55;;;8.98;;
59854;SDS011;45732;52.850;6.896;2022-07-30T08:01:38;14.52;;;8.93;;
59854;SDS011;45732;52.850;6.896;2022-07-30T08:04:04;14.30;;;8.90;;
59854;SDS011;45732;52.850;6.896;2022-07-30T08:06:29;12.98;;;9.02;;
59854;SDS011;45732;52.850;6.896;2022-07-30T08:08:55;14.00;;;8.75;;
59854;SDS011;45732;52.850;6.896;2022-07-30T08:11:21;12.43;;;9.82;;
59854;SDS011;45732;52.850;6.896;2022-07-30T08:13:46;14.68;;;9.30;;
59854;SDS011;45732;52.850;6.896;2022-07-30T08:16:12;12.82;;;9.75;;
59854;SDS011;45732;52.850;6.896;2022-07-30T08:18:39;16.17;;;9.90;;
59854;SDS011;45732;52.850;6.896;2022-07-30T08:21:04;11.75;;;8.93;;
59854;SDS011;45732;52.850;6.896;2022-07-30T08:23:32;12.80;;;9.95;;
59854;SDS011;45732;52.850;6.896;2022-07-30T08:25:58;15.00;;;10.07;;
59854;SDS011;45732;52.850;6.896;2022-07-30T08:28:24;15.68;;;9.38;;
59854;SDS011;45732;52.850;6.896;2022-07-30T08:30:50;13.35;;;10.00;;
59854;SDS011;45732;52.850;6.896;2022-07-30T08:33:15;11.32;;;8.98;;
59854;SDS011;45732;52.850;6.896;2022-07-30T08:35:41;12.50;;;9.07;;
59854;SDS011;45732;52.850;6.896;2022-07-30T08:38:07;11.65;;;9.13;;
59854;SDS011;45732;52.850;6.896;2022-07-30T08:40:33;11.48;;;8.30;;
59854;SDS011;45732;52.850;6.896;2022-07-30T08:43:01;15.43;;;9.50;;
59854;SDS011;45732;52.850;6.896;2022-07-30T08:45:28;11.80;;;8.57;;
59854;SDS011;45732;52.850;6.896;2022-07-30T08:47:55;10.07;;;7.68;;
59854;SDS011;45732;52.850;6.896;2022-07-30T08:50:23;10.80;;;8.10;;
59854;SDS011;45732;52.850;6.896;2022-07-30T08:52:49;11.85;;;9.20;;
59854;SDS011;45732;52.850;6.896;2022-07-30T08:55:15;9.88;;;7.90;;
59854;SDS011;45732;52.850;6.896;2022-07-30T08:57:41;12.50;;;6.68;;
59854;SDS011;45732;52.850;6.896;2022-07-30T09:00:08;12.95;;;7.32;;
59854;SDS011;45732;52.850;6.896;2022-07-30T09:02:34;11.23;;;6.65;;
59854;SDS011;45732;52.850;6.896;2022-07-30T09:05:00;13.48;;;7.32;;
59854;SDS011;45732;52.850;6.896;2022-07-30T09:07:26;10.45;;;7.00;;
59854;SDS011;45732;52.850;6.896;2022-07-30T09:09:52;11.77;;;6.70;;
59854;SDS011;45732;52.850;6.896;2022-07-30T09:12:37;12.18;;;6.95;;
59854;SDS011;45732;52.850;6.896;2022-07-30T09:17:53;12.15;;;6.03;;
59854;SDS011;45732;52.850;6.896;2022-07-30T09:20:27;15.05;;;5.80;;
59854;SDS011;45732;52.850;6.896;2022-07-30T09:23:01;10.18;;;5.32;;
59854;SDS011;45732;52.850;6.896;2022-07-30T09:28:02;11.27;;;5.57;;
59854;SDS011;45732;52.850;6.896;2022-07-30T09:30:45;10.13;;;5.15;;
59854;SDS011;45732;52.850;6.896;2022-07-30T09:36:08;10.38;;;4.55;;
59854;SDS011;45732;52.850;6.896;2022-07-30T09:38:49;10.38;;;4.70;;
59854;SDS011;45732;52.850;6.896;2022-07-30T09:41:32;9.15;;;4.95;;
59854;SDS011;45732;52.850;6.896;2022-07-30T09:44:04;10.27;;;4.60;;
59854;SDS011;45732;52.850;6.896;2022-07-30T09:46:43;10.00;;;4.55;;
59854;SDS011;45732;52.850;6.896;2022-07-30T09:49:15;9.30;;;3.55;;
59854;SDS011;45732;52.850;6.896;2022-07-30T09:51:43;9.43;;;4.07;;
59854;SDS011;45732;52.850;6.896;2022-07-30T09:54:09;11.13;;;4.60;;
59854;SDS011;45732;52.850;6.896;2022-07-30T09:56:34;8.63;;;4.30;;
59854;SDS011;45732;52.850;6.896;2022-07-30T09:59:00;7.95;;;3.80;;
59854;SDS011;45732;52.850;6.896;2022-07-30T10:01:26;10.05;;;4.53;;
59854;SDS011;45732;52.850;6.896;2022-07-30T10:03:55;8.27;;;4.72;;
59854;SDS011;45732;52.850;6.896;2022-07-30T10:06:33;11.95;;;4.32;;
59854;SDS011;45732;52.850;6.896;2022-07-30T10:09:00;9.48;;;4.20;;
59854;SDS011;45732;52.850;6.896;2022-07-30T10:11:25;6.80;;;3.97;;
59854;SDS011;45732;52.850;6.896;2022-07-30T10:13:53;9.93;;;4.03;;
59854;SDS011;45732;52.850;6.896;2022-07-30T10:16:21;8.13;;;4.00;;
59854;SDS011;45732;52.850;6.896;2022-07-30T10:18:50;8.43;;;3.95;;
59854;SDS011;45732;52.850;6.896;2022-07-30T10:21:16;9.35;;;4.05;;
59854;SDS011;45732;52.850;6.896;2022-07-30T10:23:43;9.82;;;3.83;;
59854;SDS011;45732;52.850;6.896;2022-07-30T10:26:09;9.55;;;3.38;;
59854;SDS011;45732;52.850;6.896;2022-07-30T10:28:35;9.68;;;3.28;;
59854;SDS011;45732;52.850;6.896;2022-07-30T10:31:01;8.50;;;3.40;;
59854;SDS011;45732;52.850;6.896;2022-07-30T10:33:28;10.15;;;3.63;;
59854;SDS011;45732;52.850;6.896;2022-07-30T10:35:55;8.13;;;3.55;;
59854;SDS011;45732;52.850;6.896;2022-07-30T10:38:23;10.00;;;3.50;;
59854;SDS011;45732;52.850;6.896;2022-07-30T10:41:06;9.23;;;3.00;;
59854;SDS011;45732;52.850;6.896;2022-07-30T10:46:38;10.35;;;3.28;;
59854;SDS011;45732;52.850;6.896;2022-07-30T10:49:20;8.25;;;3.42;;
59854;SDS011;45732;52.850;6.896;2022-07-30T10:51:47;9.75;;;3.83;;
59854;SDS011;45732;52.850;6.896;2022-07-30T10:54:35;10.23;;;3.65;;
59854;SDS011;45732;52.850;6.896;2022-07-30T11:02:22;10.52;;;3.30;;
59854;SDS011;45732;52.850;6.896;2022-07-30T11:04:54;7.40;;;3.33;;
59854;SDS011;45732;52.850;6.896;2022-07-30T11:07:41;8.07;;;3.28;;
59854;SDS011;45732;52.850;6.896;2022-07-30T11:10:07;8.52;;;3.40;;
59854;SDS011;45732;52.850;6.896;2022-07-30T11:12:59;6.25;;;3.05;;
59854;SDS011;45732;52.850;6.896;2022-07-30T11:15:30;9.45;;;3.08;;
59854;SDS011;45732;52.850;6.896;2022-07-30T11:18:21;11.52;;;3.00;;
59854;SDS011;45732;52.850;6.896;2022-07-30T11:23:40;7.95;;;2.90;;
59854;SDS011;45732;52.850;6.896;2022-07-30T11:26:07;5.40;;;2.33;;
59854;SDS011;45732;52.850;6.896;2022-07-30T11:37:02;7.47;;;2.47;;
59854;SDS011;45732;52.850;6.896;2022-07-30T11:44:50;6.45;;;2.47;;
59854;SDS011;45732;52.850;6.896;2022-07-30T11:47:16;10.00;;;3.08;;
59854;SDS011;45732;52.850;6.896;2022-07-30T11:49:44;5.35;;;2.35;;
59854;SDS011;45732;52.850;6.896;2022-07-30T11:52:10;6.20;;;2.45;;
59854;SDS011;45732;52.850;6.896;2022-07-30T11:54:52;7.85;;;2.35;;
59854;SDS011;45732;52.850;6.896;2022-07-30T11:57:19;7.25;;;2.53;;
59854;SDS011;45732;52.850;6.896;2022-07-30T11:59:54;6.05;;;2.30;;
59854;SDS011;45732;52.850;6.896;2022-07-30T12:02:26;4.80;;;1.77;;
59854;SDS011;45732;52.850;6.896;2022-07-30T12:04:52;9.02;;;2.10;;
59854;SDS011;45732;52.850;6.896;2022-07-30T12:07:22;6.70;;;2.28;;
59854;SDS011;45732;52.850;6.896;2022-07-30T12:09:48;7.95;;;2.60;;
59854;SDS011;45732;52.850;6.896;2022-07-30T12:12:22;101.50;;;20.15;;
59854;SDS011;45732;52.850;6.896;2022-07-30T12:14:49;19.83;;;4.38;;
59854;SDS011;45732;52.850;6.896;2022-07-30T12:17:15;8.75;;;2.55;;
59854;SDS011;45732;52.850;6.896;2022-07-30T12:19:44;24.25;;;4.20;;
59854;SDS011;45732;52.850;6.896;2022-07-30T12:22:11;15.68;;;2.83;;
59854;SDS011;45732;52.850;6.896;2022-07-30T12:24:37;8.55;;;2.28;;
59854;SDS011;45732;52.850;6.896;2022-07-30T12:27:03;8.98;;;2.60;;
59854;SDS011;45732;52.850;6.896;2022-07-30T12:29:29;5.85;;;2.22;;
59854;SDS011;45732;52.850;6.896;2022-07-30T12:31:56;4.65;;;2.20;;
59854;SDS011;45732;52.850;6.896;2022-07-30T12:34:23;5.43;;;2.42;;
59854;SDS011;45732;52.850;6.896;2022-07-30T12:36:50;10.93;;;2.03;;
59854;SDS011;45732;52.850;6.896;2022-07-30T12:39:17;6.03;;;1.70;;
59854;SDS011;45732;52.850;6.896;2022-07-30T12:41:46;6.72;;;2.55;;
59854;SDS011;45732;52.850;6.896;2022-07-30T12:46:57;8.00;;;2.22;;
59854;SDS011;45732;52.850;6.896;2022-07-30T12:49:29;6.88;;;2.45;;
59854;SDS011;45732;52.850;6.896;2022-07-30T12:51:56;8.18;;;2.72;;
59854;SDS011;45732;52.850;6.896;2022-07-30T12:54:22;6.63;;;2.97;;
59854;SDS011;45732;52.850;6.896;2022-07-30T12:56:58;7.22;;;2.53;;
59854;SDS011;45732;52.850;6.896;2022-07-30T12:59:28;5.63;;;2.20;;
59854;SDS011;45732;52.850;6.896;2022-07-30T13:01:55;5.97;;;2.60;;
59854;SDS011;45732;52.850;6.896;2022-07-30T13:04:24;6.38;;;2.30;;
59854;SDS011;45732;52.850;6.896;2022-07-30T13:07:09;9.35;;;2.40;;
59854;SDS011;45732;52.850;6.896;2022-07-30T13:09:36;7.63;;;2.10;;
59854;SDS011;45732;52.850;6.896;2022-07-30T13:12:04;6.93;;;2.30;;
59854;SDS011;45732;52.850;6.896;2022-07-30T13:14:31;4.35;;;2.10;;
59854;SDS011;45732;52.850;6.896;2022-07-30T13:16:57;5.88;;;2.33;;
59854;SDS011;45732;52.850;6.896;2022-07-30T13:19:23;5.13;;;2.05;;
59854;SDS011;45732;52.850;6.896;2022-07-30T13:21:49;9.18;;;2.33;;
59854;SDS011;45732;52.850;6.896;2022-07-30T13:24:16;8.85;;;2.20;;
59854;SDS011;45732;52.850;6.896;2022-07-30T13:26:42;4.50;;;1.80;;
59854;SDS011;45732;52.850;6.896;2022-07-30T13:29:08;6.95;;;2.40;;
59854;SDS011;45732;52.850;6.896;2022-07-30T13:31:34;5.05;;;2.05;;
59854;SDS011;45732;52.850;6.896;2022-07-30T13:34:00;5.78;;;1.88;;
59854;SDS011;45732;52.850;6.896;2022-07-30T13:36:26;4.90;;;1.88;;
59854;SDS011;45732;52.850;6.896;2022-07-30T13:38:52;7.60;;;2.45;;
59854;SDS011;45732;52.850;6.896;2022-07-30T13:41:18;5.72;;;2.10;;
59854;SDS011;45732;52.850;6.896;2022-07-30T13:43:45;5.28;;;1.83;;
59854;SDS011;45732;52.850;6.896;2022-07-30T13:46:11;3.55;;;1.80;;
59854;SDS011;45732;52.850;6.896;2022-07-30T13:48:36;6.20;;;2.10;;
59854;SDS011;45732;52.850;6.896;2022-07-30T13:51:03;4.55;;;1.48;;
59854;SDS011;45732;52.850;6.896;2022-07-30T13:53:30;2.78;;;1.35;;
59854;SDS011;45732;52.850;6.896;2022-07-30T13:55:56;4.43;;;1.85;;
59854;SDS011;45732;52.850;6.896;2022-07-30T13:58:23;4.20;;;1.50;;
59854;SDS011;45732;52.850;6.896;2022-07-30T14:00:49;4.68;;;1.65;;
59854;SDS011;45732;52.850;6.896;2022-07-30T14:03:15;5.43;;;1.70;;
59854;SDS011;45732;52.850;6.896;2022-07-30T14:05:41;3.33;;;1.42;;
59854;SDS011;45732;52.850;6.896;2022-07-30T14:08:07;5.03;;;1.50;;
59854;SDS011;45732;52.850;6.896;2022-07-30T14:10:34;3.63;;;1.75;;
59854;SDS011;45732;52.850;6.896;2022-07-30T14:13:02;4.45;;;1.50;;
59854;SDS011;45732;52.850;6.896;2022-07-30T14:15:28;7.68;;;1.90;;
59854;SDS011;45732;52.850;6.896;2022-07-30T14:17:55;3.70;;;1.50;;
59854;SDS011;45732;52.850;6.896;2022-07-30T14:20:21;5.75;;;1.70;;
59854;SDS011;45732;52.850;6.896;2022-07-30T14:22:47;4.85;;;1.70;;
59854;SDS011;45732;52.850;6.896;2022-07-30T14:25:12;4.43;;;1.50;;
59854;SDS011;45732;52.850;6.896;2022-07-30T14:27:38;6.07;;;2.03;;
59854;SDS011;45732;52.850;6.896;2022-07-30T14:30:05;3.10;;;1.60;;
59854;SDS011;45732;52.850;6.896;2022-07-30T14:32:32;4.25;;;1.88;;
59854;SDS011;45732;52.850;6.896;2022-07-30T14:34:57;5.38;;;1.70;;
59854;SDS011;45732;52.850;6.896;2022-07-30T14:37:23;6.05;;;1.80;;
59854;SDS011;45732;52.850;6.896;2022-07-30T14:39:49;7.35;;;1.95;;
59854;SDS011;45732;52.850;6.896;2022-07-30T14:42:15;7.38;;;1.50;;
59854;SDS011;45732;52.850;6.896;2022-07-30T14:44:41;8.48;;;2.28;;
59854;SDS011;45732;52.850;6.896;2022-07-30T14:47:07;6.28;;;2.05;;
59854;SDS011;45732;52.850;6.896;2022-07-30T14:49:33;6.50;;;1.98;;
59854;SDS011;45732;52.850;6.896;2022-07-30T14:51:59;5.57;;;1.88;;
59854;SDS011;45732;52.850;6.896;2022-07-30T14:54:25;5.55;;;1.80;;
59854;SDS011;45732;52.850;6.896;2022-07-30T14:56:55;4.25;;;1.50;;
59854;SDS011;45732;52.850;6.896;2022-07-30T14:59:21;6.57;;;1.95;;
59854;SDS011;45732;52.850;6.896;2022-07-30T15:01:46;6.22;;;1.60;;
59854;SDS011;45732;52.850;6.896;2022-07-30T15:04:13;5.40;;;1.58;;
59854;SDS011;45732;52.850;6.896;2022-07-30T15:06:39;7.18;;;2.08;;
59854;SDS011;45732;52.850;6.896;2022-07-30T15:09:06;4.10;;;1.40;;
59854;SDS011;45732;52.850;6.896;2022-07-30T15:11:32;4.15;;;1.40;;
59854;SDS011;45732;52.850;6.896;2022-07-30T15:13:58;4.40;;;1.60;;
59854;SDS011;45732;52.850;6.896;2022-07-30T15:16:23;4.47;;;1.60;;
59854;SDS011;45732;52.850;6.896;2022-07-30T15:18:49;3.60;;;1.30;;
59854;SDS011;45732;52.850;6.896;2022-07-30T15:21:15;4.78;;;1.70;;
59854;SDS011;45732;52.850;6.896;2022-07-30T15:23:41;4.93;;;1.45;;
59854;SDS011;45732;52.850;6.896;2022-07-30T15:26:06;5.50;;;1.38;;